createdAt,value
2017-08-04T04:04:36.721Z,18.1
2017-08-04T04:09:39.664Z,18.2
2017-08-04T04:14:42.617Z,18.2
2017-08-04T04:19:45.564Z,18.2
2017-08-04T04:24:48.492Z,18.3
2017-08-04T04:29:51.464Z,18.3
2017-08-04T04:34:54.384Z,18.4
2017-08-04T04:39:57.317Z,18.4
2017-08-04T04:45:00.288Z,18.5
2017-08-04T04:50:03.226Z,18.6
2017-08-04T04:55:06.189Z,18.7
2017-08-04T05:00:09.192Z,18.7
2017-08-04T05:05:12.141Z,18.8
2017-08-04T05:10:15.085Z,18.8
2017-08-04T05:15:18.041Z,18.8
2017-08-04T05:20:21.020Z,18.8
2017-08-04T05:25:23.973Z,18.9
2017-08-04T05:30:26.908Z,18.9
2017-08-04T05:35:29.887Z,18.9
2017-08-04T05:40:32.832Z,19.0
2017-08-04T05:45:35.791Z,19.1
2017-08-04T05:50:38.737Z,19.0
2017-08-04T05:55:41.685Z,19.0
2017-08-04T06:00:44.684Z,19.0
2017-08-04T06:05:47.694Z,19.1
2017-08-04T06:10:50.671Z,19.1
2017-08-04T06:15:53.622Z,19.2
2017-08-04T06:20:56.582Z,19.2
2017-08-04T06:25:59.634Z,19.3
2017-08-04T06:31:02.605Z,19.3
2017-08-04T06:36:05.557Z,19.3
2017-08-04T06:41:08.599Z,19.5
2017-08-04T06:46:11.725Z,19.5
2017-08-04T06:51:14.694Z,19.4
2017-08-04T06:56:17.648Z,19.4
2017-08-04T07:01:20.717Z,19.6
2017-08-04T07:06:23.665Z,19.7
2017-08-04T07:11:26.633Z,19.6
2017-08-04T07:16:29.595Z,19.7
2017-08-04T07:21:32.549Z,19.8
2017-08-04T07:26:35.651Z,19.8
2017-08-04T07:31:38.586Z,19.9
2017-08-04T07:36:41.625Z,20.0
2017-08-04T07:41:45.936Z,20.1
2017-08-04T07:46:48.867Z,20.2
2017-08-04T07:51:51.838Z,20.4
2017-08-04T07:56:54.818Z,20.5
2017-08-04T08:01:57.885Z,20.4
2017-08-04T08:07:00.968Z,20.5
2017-08-04T08:12:03.969Z,20.7
2017-08-04T08:17:06.923Z,20.4
2017-08-04T08:22:09.928Z,20.5
2017-08-04T08:27:12.938Z,20.7
2017-08-04T08:32:15.919Z,20.8
2017-08-04T08:37:18.897Z,20.8
2017-08-04T08:42:21.904Z,20.9
2017-08-04T08:47:25.018Z,21.0
2017-08-04T08:52:27.985Z,21.2
2017-08-04T08:57:30.942Z,21.1
2017-08-04T09:02:33.921Z,21.0
2017-08-04T09:07:36.898Z,21.1
2017-08-04T09:12:39.978Z,21.1
2017-08-04T09:17:42.932Z,21.4
2017-08-04T09:22:45.943Z,21.6
2017-08-04T09:27:55.718Z,21.4
2017-08-04T09:32:58.293Z,21.4
2017-08-04T09:38:01.269Z,21.6
2017-08-04T09:43:04.224Z,21.7
2017-08-04T09:48:07.214Z,22.0
2017-08-04T09:53:11.960Z,22.1
2017-08-04T09:58:15.678Z,22.0
2017-08-04T10:03:18.623Z,21.9
2017-08-04T10:08:22.635Z,21.8
2017-08-04T10:13:25.652Z,21.8
2017-08-04T10:18:28.607Z,21.8
2017-08-04T10:23:31.564Z,21.6
2017-08-04T10:28:35.154Z,21.5
2017-08-04T10:33:38.120Z,21.8
2017-08-04T10:38:41.082Z,22.1
2017-08-04T10:43:44.074Z,22.6
2017-08-04T10:48:47.053Z,22.8
2017-08-04T10:53:50.229Z,23.0
2017-08-04T10:58:53.276Z,22.9
2017-08-04T11:09:00.302Z,22.7
2017-08-04T11:14:03.267Z,22.6
2017-08-04T11:23:50.047Z,22.0
2017-08-04T11:28:53.003Z,22.2
2017-08-04T11:33:57.640Z,22.4
2017-08-04T11:39:00.688Z,22.8
2017-08-04T11:44:03.681Z,22.9
2017-08-04T11:49:06.653Z,22.5
2017-08-04T11:54:09.651Z,22.3
2017-08-04T11:59:12.629Z,22.9
2017-08-04T12:04:15.634Z,22.9
2017-08-04T12:09:18.902Z,22.7
2017-08-04T12:14:21.891Z,22.6
2017-08-04T12:19:24.864Z,22.7
2017-08-04T12:24:27.906Z,22.3
2017-08-04T12:29:30.904Z,22.7
2017-08-04T12:34:33.899Z,22.9
2017-08-04T12:39:36.980Z,23.9
2017-08-04T12:44:39.973Z,24.4
2017-08-04T12:49:43.022Z,25.2
2017-08-04T12:54:46.033Z,25.6
2017-08-04T12:59:49.055Z,25.1
2017-08-04T13:04:52.049Z,24.5
2017-08-04T13:09:55.062Z,25.3
2017-08-04T13:14:58.082Z,24.6
2017-08-04T13:20:01.147Z,24.8
2017-08-04T13:25:04.138Z,24.2
2017-08-04T13:30:07.179Z,24.2
2017-08-04T13:35:10.199Z,24.4
2017-08-04T13:40:13.196Z,26.2
2017-08-04T13:45:16.241Z,28.2
2017-08-04T13:50:19.254Z,25.5
2017-08-04T13:55:22.316Z,24.5
2017-08-04T14:00:25.365Z,24.7
2017-08-04T14:05:28.459Z,23.9
2017-08-04T14:10:31.545Z,24.5
2017-08-04T14:15:34.522Z,24.2
2017-08-04T14:20:37.522Z,23.3
2017-08-04T14:25:40.495Z,23.7
2017-08-04T14:30:43.537Z,23.8
2017-08-04T14:35:46.525Z,24.4
2017-08-04T14:40:49.521Z,25.9
2017-08-04T14:45:52.541Z,25.4
2017-08-04T14:50:55.672Z,24.1
2017-08-04T14:55:58.908Z,23.5
2017-08-04T15:01:01.888Z,23.3
2017-08-04T15:06:04.869Z,23.1
2017-08-04T15:11:07.856Z,23.2
2017-08-04T15:16:10.832Z,24.1
2017-08-04T15:21:13.861Z,25.5
2017-08-04T15:26:16.872Z,26.0
2017-08-04T15:31:19.862Z,25.5
2017-08-04T15:36:23.065Z,24.6
2017-08-04T15:41:26.036Z,24.2
2017-08-04T15:46:29.034Z,25.1
2017-08-04T15:51:32.093Z,25.2
2017-08-04T15:56:35.131Z,24.6
2017-08-04T16:01:38.151Z,24.4
2017-08-04T16:06:41.204Z,24.5
2017-08-04T16:11:44.191Z,25.1
2017-08-04T16:16:47.150Z,24.8
2017-08-04T16:21:50.219Z,24.1
2017-08-04T16:26:53.554Z,23.9
2017-08-04T16:31:56.911Z,24.5
2017-08-04T16:37:00.144Z,24.3
2017-08-04T16:42:03.158Z,24.0
2017-08-04T16:47:06.148Z,23.5
2017-08-04T16:52:09.153Z,23.3
2017-08-04T16:57:12.242Z,23.4
2017-08-04T17:02:15.207Z,23.4
2017-08-04T17:07:18.220Z,23.2
2017-08-04T17:17:46.095Z,23.0
2017-08-04T17:22:49.049Z,22.9
2017-08-04T17:32:24.204Z,22.8
2017-08-04T17:37:27.188Z,22.6
2017-08-04T17:42:30.168Z,22.5
2017-08-04T17:47:33.120Z,22.5
2017-08-04T17:52:36.073Z,22.4
2017-08-04T17:57:39.045Z,22.3
2017-08-04T18:02:42.442Z,22.2
2017-08-04T18:07:45.464Z,22.2
2017-08-04T18:12:48.406Z,22.1
2017-08-04T18:17:51.360Z,22.2
2017-08-04T18:22:54.370Z,22.1
2017-08-04T18:27:57.378Z,22.1
2017-08-04T18:33:00.324Z,22.0
2017-08-04T18:38:03.328Z,21.9
2017-08-04T18:43:06.282Z,21.8
2017-08-04T18:48:09.586Z,21.7
2017-08-04T18:53:12.588Z,21.6
2017-08-04T18:58:16.422Z,21.5
2017-08-04T19:03:19.734Z,21.3
2017-08-04T19:08:22.876Z,21.3
2017-08-04T19:13:25.779Z,21.3
2017-08-04T19:18:28.844Z,21.1
2017-08-04T19:23:31.801Z,21.0
2017-08-04T19:28:36.571Z,21.0
2017-08-04T19:33:40.167Z,21.0
2017-08-04T19:38:44.061Z,21.0
2017-08-04T19:43:50.632Z,20.9
2017-08-04T19:48:53.530Z,20.8
2017-08-04T19:53:56.595Z,20.7
2017-08-04T19:58:59.629Z,20.5
2017-08-04T20:04:02.962Z,20.5
2017-08-04T20:09:06.402Z,20.4
2017-08-04T20:14:09.841Z,20.4
2017-08-04T20:19:12.793Z,20.4
2017-08-04T20:24:15.773Z,20.3
2017-08-04T20:29:18.852Z,20.3
2017-08-04T20:34:21.917Z,20.3
2017-08-04T20:39:24.934Z,20.1
2017-08-04T20:44:27.980Z,20.1
2017-08-04T20:49:31.021Z,20.0
2017-08-04T20:54:33.960Z,19.9
2017-08-04T20:59:36.976Z,20.0
2017-08-04T21:04:39.876Z,19.9
2017-08-04T21:09:42.856Z,19.7
2017-08-04T21:14:45.787Z,19.7
2017-08-04T21:19:48.806Z,19.5
2017-08-04T21:24:51.787Z,19.5
2017-08-04T21:29:54.767Z,19.4
2017-08-04T21:34:58.037Z,19.5
2017-08-04T21:40:01.055Z,19.4
2017-08-04T21:45:04.068Z,19.3
2017-08-04T21:50:07.325Z,19.2
2017-08-04T21:55:10.551Z,19.2
2017-08-04T22:00:13.498Z,19.2
2017-08-04T22:05:16.532Z,19.2
2017-08-04T22:10:19.484Z,19.2
2017-08-04T22:15:22.454Z,19.2
2017-08-04T22:20:25.367Z,19.2
2017-08-04T22:25:28.323Z,19.1
2017-08-04T22:30:31.336Z,19.1
2017-08-04T22:35:34.267Z,19.1
2017-08-04T22:40:37.189Z,19.0
2017-08-04T22:45:40.115Z,18.8
2017-08-04T22:50:43.044Z,18.8
2017-08-04T22:55:45.957Z,18.8
